Latest Coastal Weather Observations for Ngayawili (Elcho Island)

IDD60701

Issued at 10:25 am CST Thursday 24 April 2014 (issued every 10 minutes, with the page automatically refreshed every 10 minutes)

About coastal observations | Map of coastal stations | Coastal observations for NT | Marine services | Other Formats
Station Details ID: 014517 Name: NGAYAWILI Lat: -12.00 Lon: 135.57 Height: 8.1 m
Data from the previous 72 hours. | See also: Recent months at Ngayawili (Elcho Island)
Date/Time
CST
Temp

°C
Wind Pressure Rain
since 9am
mm
Weather Cloud Vis
km
Sea
Height
m
Swell
Dir
 
Speed
knots
Gust
knots
hPa Trend Height
m
Period
s
Dir
24/10:00am 27.9 NNE 10 14 1008.6 - 0.0 - - - - - - -
24/09:30am 26.9 N 14 22 1008.9 - 0.0 - - - - - - -
24/09:00am 27.9 N 11 14 1008.5 - 0.0 - - - - - - -
24/08:30am 26.3 NNE 7 11 1008.2 - 0.0 - - - - - - -
24/08:00am 26.4 NE 7 10 1007.9 - 0.0 - - - - - - -
24/07:30am 25.4 ENE 4 6 1007.5 - 0.0 - - - - - - -
24/07:00am 25.6 NE 5 9 1006.8 - 0.0 - - - - - - -
24/06:30am 25.3 NE 5 7 1006.6 - 0.0 - - - - - - -
24/06:00am 25.0 NE 5 7 1006.2 - 0.0 - - - - - - -
24/05:30am 25.2 NNE 9 17 1006.4 - 0.0 - - - - - - -
24/05:00am 25.4 N 12 17 1006.5 - 0.0 - - - - - - -
24/04:30am 24.8 E 4 7 1006.8 - 0.0 - - - - - - -
24/04:00am 24.4 E 4 5 1006.7 - 0.0 - - - - - - -
24/03:30am 24.4 E 3 4 1006.7 - 0.0 - - - - - - -
24/03:00am 24.3 E 4 5 1006.4 - 0.0 - - - - - - -
24/02:30am 24.0 ESE 5 7 1006.0 - 0.0 - - - - - - -
24/02:00am 24.2 ESE 4 6 1006.7 - 0.0 - - - - - - -
24/01:30am 24.0 ESE 6 7 1007.7 - 0.0 - - - - - - -
24/01:00am 24.1 ESE 6 10 1008.1 - 0.0 - - - - - - -
24/12:30am 24.3 E 6 8 1008.7 - 0.0 - - - - - - -
24/12:00am 24.7 E 7 12 1008.5 - 0.0 - - - - - - -
 
Date/Time
CST
Temp

°C
Wind Pressure Rain
since 9am
mm
Weather Cloud Vis
km
Sea
Height
m
Swell
Dir
 
Speed
knots
Gust
knots
hPa Trend Height
m
Period
s
Dir
23/11:30pm 24.6 SE 9 12 1009.2 - 0.0 - - - - - - -
23/11:00pm 24.4 ESE 6 7 1009.3 - 0.0 - - - - - - -
23/10:30pm 24.4 E 5 6 1009.5 - 0.0 - - - - - - -
23/10:00pm 24.4 E 3 6 1009.3 - 0.0 - - - - - - -
23/09:30pm 24.3 E 3 4 1009.1 - 0.0 - - - - - - -
23/09:00pm 24.2 ENE 6 9 1008.8 - 0.0 - - - - - - -
23/08:30pm 24.6 ENE 5 8 1009.3 - 0.0 - - - - - - -
23/08:00pm 25.1 N 15 19 1009.2 - 0.0 - - - - - - -
23/07:30pm 25.3 N 12 17 1008.4 - 0.0 - - - - - - -
23/07:00pm 26.1 N 15 26 1007.6 - 0.0 - - - - - - -
23/06:30pm 26.7 ENE 6 9 1007.3 - 0.0 - - - - - - -
23/06:00pm 26.8 NE 7 10 1007.0 - 0.0 - - - - - - -
23/05:30pm 27.8 NNE 3 4 1006.9 - 0.0 - - - - - - -
23/05:00pm 28.6 ENE 5 7 1006.8 - 0.0 - - - - - - -
23/04:30pm 29.0 NE 6 9 1006.5 - 0.0 - - - - - - -
23/04:00pm 30.3 N 8 10 1006.0 - 0.0 - - - - - - -
23/03:30pm 29.9 N 5 6 1006.2 - 0.0 - - - - - - -
23/03:00pm 29.9 N 6 10 1006.5 - 0.0 - - - - - - -
23/02:30pm 28.3 NE 5 8 1007.0 - 0.0 - - - - - - -
23/02:00pm 28.2 NNE 12 19 1007.3 - 0.0 - - - - - - -
23/01:30pm 28.3 N 12 17 1007.8 - 0.0 - - - - - - -
23/01:00pm 27.4 NNW 19 23 1008.1 - 0.0 - - - - - - -
23/12:52pm 29.0 NNW 17 20 1008.3 - 0.0 - - - - - - -
23/12:30pm 29.7 N 4 6 1008.5 - 0.0 - - - - - - -
23/12:00pm 29.7 N 3 5 1008.6 - 0.0 - - - - - - -
23/11:30am 29.1 N 4 5 1009.3 - 0.0 - - - - - - -
23/11:00am 28.9 ESE 5 6 1009.7 - 0.0 - - - - - - -
23/10:30am 28.6 SE 3 4 1010.0 - 0.0 - - - - - - -
23/10:00am 28.1 SE 3 4 1010.2 - 0.0 - - - - - - -
23/09:30am 27.3 SE 2 3 1010.4 - 0.0 - - - - - - -
23/09:00am 26.7 SE 5 6 1010.0 - 0.0 - - - - - - -
23/08:30am 25.9 SE 4 5 1010.1 - 0.0 - - - - - - -
23/08:00am 25.4 SE 5 6 1009.7 - 0.0 - - - - - - -
23/07:30am 25.2 SE 4 6 1009.5 - 0.0 - - - - - - -
23/07:00am 25.0 ESE 6 7 1009.3 - 0.0 - - - - - - -
23/06:30am 25.0 SE 6 8 1009.0 - 0.0 - - - - - - -
23/06:00am 25.1 SE 5 7 1008.5 - 0.0 - - - - - - -
23/05:30am 25.1 SSE 5 7 1008.2 - 0.0 - - - - - - -
23/05:00am 25.0 SE 7 9 1008.0 - 0.0 - - - - - - -
23/04:30am 25.1 SE 6 7 1007.9 - 0.0 - - - - - - -
23/04:00am 25.1 SE 6 7 1007.9 - 0.0 - - - - - - -
23/03:30am 25.3 SE 5 7 1008.0 - 0.0 - - - - - - -
23/03:00am 25.4 SE 6 8 1007.7 - 0.0 - - - - - - -
23/02:30am 25.5 SE 6 8 1008.1 - 0.0 - - - - - - -
23/02:00am 25.7 SE 5 6 1008.5 - 0.0 - - - - - - -
23/01:30am 25.6 SE 4 5 1008.6 - 0.0 - - - - - - -
23/01:00am 25.8 SE 4 6 1009.3 - 0.0 - - - - - - -
23/12:30am 25.7 SSE 6 7 1009.7 - 0.0 - - - - - - -
23/12:00am 25.7 ENE 4 5 1009.9 - 0.0 - - - - - - -
 
Date/Time
CST
Temp

°C
Wind Pressure Rain
since 9am
mm
Weather Cloud Vis
km
Sea
Height
m
Swell
Dir
 
Speed
knots
Gust
knots
hPa Trend Height
m
Period
s
Dir
22/11:30pm 25.7 ENE 4 5 1009.9 - 0.0 - - - - - - -
22/11:00pm 25.9 ENE 4 5 1010.2 - 0.0 - - - - - - -
22/10:30pm 25.8 NE 5 5 1009.9 - 0.0 - - - - - - -
22/10:00pm 26.0 NE 5 5 1010.1 - 0.0 - - - - - - -
22/09:30pm 26.1 NE 4 5 1010.0 - 0.0 - - - - - - -
22/09:00pm 26.1 NE 4 5 1009.7 - 0.0 - - - - - - -
22/08:30pm 26.2 NE 4 6 1009.6 - 0.0 - - - - - - -
22/08:00pm 26.3 NE 4 5 1009.1 - 0.0 - - - - - - -
22/07:30pm 26.3 NE 5 6 1009.0 - 0.0 - - - - - - -
22/07:00pm 26.5 NE 4 5 1008.8 - 0.0 - - - - - - -
22/06:30pm 26.9 NE 4 5 1008.6 - 0.0 - - - - - - -
22/06:00pm 27.5 NE 4 5 1008.2 - 0.0 - - - - - - -
22/05:30pm 28.0 NE 5 8 1007.9 - 0.0 - - - - - - -
22/05:00pm 28.0 NE 5 8 1007.8 - 0.0 - - - - - - -
22/04:30pm 28.2 NNE 5 9 1007.8 - 0.0 - - - - - - -
22/04:00pm 28.1 NE 7 10 1007.5 - 0.0 - - - - - - -
22/03:30pm 28.1 N 4 6 1007.3 - 0.0 - - - - - - -
22/03:00pm 27.7 N 2 5 1007.1 - 0.0 - - - - - - -
22/02:30pm 27.4 NNW 5 7 1007.4 - 0.0 - - - - - - -
22/02:00pm 27.8 W 4 7 1007.7 - 0.0 - - - - - - -
22/01:30pm 28.5 SSW 6 8 1007.6 - 0.0 - - - - - - -
22/01:00pm 29.5 N 7 9 1007.9 - 0.0 - - - - - - -
22/12:30pm 29.6 N 6 7 1008.6 - 0.0 - - - - - - -
22/12:00pm 29.7 N 7 9 1009.2 - 0.0 - - - - - - -
22/11:30am 28.8 E 6 8 1009.9 - 0.0 - - - - - - -
22/11:00am 27.4 ESE 6 8 1010.1 - 0.0 - - - - - - -
22/10:30am 26.6 E 5 8 1010.4 - 0.0 - - - - - - -
22/10:00am 26.3 ESE 5 8 1010.6 - 0.0 - - - - - - -
22/09:30am 25.9 ESE 6 9 1010.5 - 0.0 - - - - - - -
22/09:00am 25.7 ESE 6 9 1010.5 - 0.0 - - - - - - -
22/08:30am 25.4 SE 6 9 1010.5 - 0.0 - - - - - - -
22/08:00am 25.3 SSE 7 10 1010.6 - 0.0 - - - - - - -
22/07:30am 25.4 E 6 10 1010.6 - 0.0 - - - - - - -
22/07:00am 25.4 SE 6 7 1010.2 - 0.0 - - - - - - -
22/06:30am 25.1 SE 3 4 1009.7 - 0.0 - - - - - - -
22/06:00am 25.1 SE 4 5 1009.1 - 0.0 - - - - - - -
22/05:30am 25.1 ESE 6 8 1009.3 - 0.0 - - - - - - -
22/05:00am 25.3 ESE 4 6 1009.4 - 0.0 - - - - - - -
22/04:30am 25.3 SE 8 12 1008.9 - 0.0 - - - - - - -
22/04:00am 25.6 ESE 10 16 1008.7 - 0.0 - - - - - - -
22/03:30am 26.6 SE 6 9 1009.1 - 0.0 - - - - - - -
22/03:00am 26.5 SE 5 7 1009.1 - 0.0 - - - - - - -
22/02:30am 26.3 SSE 3 4 1009.4 - 0.0 - - - - - - -
22/02:00am 26.1 SSE 4 6 1009.5 - 0.0 - - - - - - -
22/01:30am 26.2 SSE 5 7 1009.2 - 0.0 - - - - - - -
22/01:00am 26.1 SSE 5 7 1009.9 - 0.0 - - - - - - -
22/12:30am 26.3 SSE 4 5 1010.2 - 0.0 - - - - - - -
22/12:00am 26.6 SE 5 7 1010.2 - 0.0 - - - - - - -
 
Date/Time
CST
Temp

°C
Wind Pressure Rain
since 9am
mm
Weather Cloud Vis
km
Sea
Height
m
Swell
Dir
 
Speed
knots
Gust
knots
hPa Trend Height
m
Period
s
Dir
21/11:30pm 26.9 SE 5 6 1010.8 - 0.0 - - - - - - -
21/11:00pm 27.1 SE 5 7 1010.7 - 0.0 - - - - - - -
21/10:30pm 27.3 SSE 6 11 1010.5 - 0.0 - - - - - - -
21/10:00pm 27.5 SE 7 11 1010.5 - 0.0 - - - - - - -
21/09:30pm 27.6 SSE 7 9 1010.4 - 0.0 - - - - - - -
21/09:00pm 27.7 SE 6 11 1010.5 - 0.0 - - - - - - -
21/08:30pm 28.1 SE 7 12 1010.6 - 0.0 - - - - - - -
21/08:00pm 28.1 SE 7 9 1010.4 - 0.0 - - - - - - -
21/07:30pm 28.3 SE 6 12 1010.2 - 0.0 - - - - - - -
21/07:00pm 28.2 ESE 5 7 1009.5 - 0.0 - - - - - - -
21/06:30pm 28.4 ESE 5 9 1009.4 - 0.0 - - - - - - -
21/06:00pm 28.7 ESE 6 10 1009.1 - 0.0 - - - - - - -
21/05:30pm 29.1 ESE 7 14 1008.7 - 0.0 - - - - - - -
21/05:00pm 29.5 ESE 6 9 1008.5 - 0.0 - - - - - - -
21/04:30pm 29.8 ESE 8 13 1008.5 - 0.0 - - - - - - -
21/04:00pm 29.9 ESE 9 14 1008.5 - 0.0 - - - - - - -
21/03:30pm 30.2 ESE 9 14 1008.4 - 0.0 - - - - - - -
21/03:00pm 30.4 ESE 10 18 1008.3 - 0.0 - - - - - - -
21/02:30pm 30.8 E 10 17 1008.2 - 0.0 - - - - - - -
21/02:00pm 30.2 ESE 10 16 1008.5 - 0.0 - - - - - - -
21/01:30pm 30.3 SE 9 13 1008.8 - 0.0 - - - - - - -
21/01:00pm 30.1 SE 10 17 1009.1 - 0.0 - - - - - - -
21/12:30pm 29.6 E 7 12 1009.4 - 0.0 - - - - - - -
21/12:00pm 30.4 E 8 12 1009.7 - 0.0 - - - - - - -
21/11:30am 30.6 E 8 14 1010.2 - 0.0 - - - - - - -
21/11:00am 30.0 E 6 11 1010.8 - 0.0 - - - - - - -
21/10:30am 29.2 ESE 9 13 1011.2 - 0.0 - - - - - - -

Other Formats:

Comma delimited format used in spreadsheet applications
http://www.bom.gov.au/fwo/IDD60701/IDD60701.95146.axf

JavaScript Object Notation format (JSON) in row-major order
http://www.bom.gov.au/fwo/IDD60701/IDD60701.95146.json